sensor_id;sensor_type;location;lat;lon;timestamp;P1;durP1;ratioP1;P2;durP2;ratioP2
14994;SDS011;7593;49.006;8.372;2022-07-17T00:00:25;3.50;;;2.25;;
14994;SDS011;7593;49.006;8.372;2022-07-17T00:02:53;2.47;;;1.90;;
14994;SDS011;7593;49.006;8.372;2022-07-17T00:05:20;5.43;;;2.00;;
14994;SDS011;7593;49.006;8.372;2022-07-17T00:07:47;3.35;;;2.00;;
14994;SDS011;7593;49.006;8.372;2022-07-17T00:10:15;3.35;;;2.20;;
14994;SDS011;7593;49.006;8.372;2022-07-17T00:12:42;2.67;;;1.90;;
14994;SDS011;7593;49.006;8.372;2022-07-17T00:15:11;2.60;;;2.00;;
14994;SDS011;7593;49.006;8.372;2022-07-17T00:17:38;3.72;;;2.15;;
14994;SDS011;7593;49.006;8.372;2022-07-17T00:20:05;3.72;;;2.00;;
14994;SDS011;7593;49.006;8.372;2022-07-17T00:22:33;2.10;;;1.80;;
14994;SDS011;7593;49.006;8.372;2022-07-17T00:25:00;2.80;;;2.03;;
14994;SDS011;7593;49.006;8.372;2022-07-17T00:27:27;3.08;;;2.13;;
14994;SDS011;7593;49.006;8.372;2022-07-17T00:29:53;5.28;;;2.45;;
14994;SDS011;7593;49.006;8.372;2022-07-17T00:32:22;3.13;;;2.17;;
14994;SDS011;7593;49.006;8.372;2022-07-17T00:34:49;3.67;;;2.35;;
14994;SDS011;7593;49.006;8.372;2022-07-17T00:37:16;4.72;;;2.20;;
14994;SDS011;7593;49.006;8.372;2022-07-17T00:39:43;2.55;;;2.00;;
14994;SDS011;7593;49.006;8.372;2022-07-17T00:42:10;4.30;;;2.15;;
14994;SDS011;7593;49.006;8.372;2022-07-17T00:44:37;3.78;;;2.03;;
14994;SDS011;7593;49.006;8.372;2022-07-17T00:47:09;2.70;;;2.00;;
14994;SDS011;7593;49.006;8.372;2022-07-17T00:49:39;4.10;;;2.08;;
14994;SDS011;7593;49.006;8.372;2022-07-17T00:52:06;2.88;;;2.00;;
14994;SDS011;7593;49.006;8.372;2022-07-17T00:54:34;2.20;;;1.90;;
14994;SDS011;7593;49.006;8.372;2022-07-17T00:57:03;4.97;;;2.13;;
14994;SDS011;7593;49.006;8.372;2022-07-17T00:59:34;3.08;;;2.22;;
14994;SDS011;7593;49.006;8.372;2022-07-17T01:02:02;3.38;;;2.13;;
14994;SDS011;7593;49.006;8.372;2022-07-17T01:04:31;3.75;;;2.35;;
14994;SDS011;7593;49.006;8.372;2022-07-17T01:07:00;5.72;;;2.38;;
14994;SDS011;7593;49.006;8.372;2022-07-17T01:09:28;4.82;;;2.08;;
14994;SDS011;7593;49.006;8.372;2022-07-17T01:11:56;3.30;;;2.30;;
14994;SDS011;7593;49.006;8.372;2022-07-17T01:14:24;4.03;;;2.00;;
14994;SDS011;7593;49.006;8.372;2022-07-17T01:16:52;2.15;;;1.95;;
14994;SDS011;7593;49.006;8.372;2022-07-17T01:19:20;2.40;;;2.00;;
14994;SDS011;7593;49.006;8.372;2022-07-17T01:21:49;4.00;;;2.20;;
14994;SDS011;7593;49.006;8.372;2022-07-17T01:24:17;3.97;;;2.00;;
14994;SDS011;7593;49.006;8.372;2022-07-17T01:26:46;2.53;;;2.10;;
14994;SDS011;7593;49.006;8.372;2022-07-17T01:29:14;2.50;;;2.15;;
14994;SDS011;7593;49.006;8.372;2022-07-17T01:31:42;3.63;;;2.10;;
14994;SDS011;7593;49.006;8.372;2022-07-17T01:34:09;3.88;;;2.33;;
14994;SDS011;7593;49.006;8.372;2022-07-17T01:36:38;3.55;;;2.17;;
14994;SDS011;7593;49.006;8.372;2022-07-17T01:39:07;4.43;;;2.15;;
14994;SDS011;7593;49.006;8.372;2022-07-17T01:41:34;2.60;;;1.95;;
14994;SDS011;7593;49.006;8.372;2022-07-17T01:44:01;4.13;;;2.00;;
14994;SDS011;7593;49.006;8.372;2022-07-17T01:46:29;2.85;;;2.10;;
14994;SDS011;7593;49.006;8.372;2022-07-17T01:48:56;9.25;;;3.78;;
14994;SDS011;7593;49.006;8.372;2022-07-17T01:51:23;3.80;;;3.00;;
14994;SDS011;7593;49.006;8.372;2022-07-17T01:53:50;2.88;;;2.50;;
14994;SDS011;7593;49.006;8.372;2022-07-17T01:56:25;3.72;;;2.17;;
14994;SDS011;7593;49.006;8.372;2022-07-17T01:58:52;3.72;;;2.10;;
14994;SDS011;7593;49.006;8.372;2022-07-17T02:01:19;8.02;;;2.63;;
14994;SDS011;7593;49.006;8.372;2022-07-17T02:03:46;7.05;;;2.47;;
14994;SDS011;7593;49.006;8.372;2022-07-17T02:06:13;2.53;;;2.20;;
14994;SDS011;7593;49.006;8.372;2022-07-17T02:08:40;4.60;;;2.20;;
14994;SDS011;7593;49.006;8.372;2022-07-17T02:11:07;3.55;;;2.25;;
14994;SDS011;7593;49.006;8.372;2022-07-17T02:13:35;6.03;;;2.60;;
14994;SDS011;7593;49.006;8.372;2022-07-17T02:16:02;2.35;;;1.85;;
14994;SDS011;7593;49.006;8.372;2022-07-17T02:18:29;6.00;;;2.20;;
14994;SDS011;7593;49.006;8.372;2022-07-17T02:20:56;4.13;;;2.10;;
14994;SDS011;7593;49.006;8.372;2022-07-17T02:23:23;5.63;;;2.28;;
14994;SDS011;7593;49.006;8.372;2022-07-17T02:25:50;4.30;;;2.15;;
14994;SDS011;7593;49.006;8.372;2022-07-17T02:28:17;3.97;;;2.15;;
14994;SDS011;7593;49.006;8.372;2022-07-17T02:30:45;2.58;;;2.20;;
14994;SDS011;7593;49.006;8.372;2022-07-17T02:33:12;3.20;;;2.10;;
14994;SDS011;7593;49.006;8.372;2022-07-17T02:35:39;3.53;;;2.30;;
14994;SDS011;7593;49.006;8.372;2022-07-17T02:38:06;5.28;;;2.80;;
14994;SDS011;7593;49.006;8.372;2022-07-17T02:40:33;3.00;;;2.53;;
14994;SDS011;7593;49.006;8.372;2022-07-17T02:43:00;2.80;;;2.50;;
14994;SDS011;7593;49.006;8.372;2022-07-17T02:45:26;3.03;;;2.50;;
14994;SDS011;7593;49.006;8.372;2022-07-17T02:47:55;4.32;;;2.70;;
14994;SDS011;7593;49.006;8.372;2022-07-17T02:50:22;3.75;;;2.53;;
14994;SDS011;7593;49.006;8.372;2022-07-17T02:52:49;3.38;;;2.67;;
14994;SDS011;7593;49.006;8.372;2022-07-17T02:55:16;6.95;;;2.70;;
14994;SDS011;7593;49.006;8.372;2022-07-17T02:57:43;3.58;;;2.63;;
14994;SDS011;7593;49.006;8.372;2022-07-17T03:00:12;5.03;;;2.83;;
14994;SDS011;7593;49.006;8.372;2022-07-17T03:02:41;2.97;;;2.67;;
14994;SDS011;7593;49.006;8.372;2022-07-17T03:05:09;3.72;;;2.90;;
14994;SDS011;7593;49.006;8.372;2022-07-17T03:07:37;3.35;;;2.70;;
14994;SDS011;7593;49.006;8.372;2022-07-17T03:10:04;3.13;;;2.80;;
14994;SDS011;7593;49.006;8.372;2022-07-17T03:12:32;10.40;;;3.33;;
14994;SDS011;7593;49.006;8.372;2022-07-17T03:14:59;6.43;;;3.10;;
14994;SDS011;7593;49.006;8.372;2022-07-17T03:17:25;5.97;;;3.13;;
14994;SDS011;7593;49.006;8.372;2022-07-17T03:19:52;4.63;;;2.60;;
14994;SDS011;7593;49.006;8.372;2022-07-17T03:22:20;5.03;;;3.42;;
14994;SDS011;7593;49.006;8.372;2022-07-17T03:24:47;3.17;;;2.60;;
14994;SDS011;7593;49.006;8.372;2022-07-17T03:27:14;3.28;;;2.92;;
14994;SDS011;7593;49.006;8.372;2022-07-17T03:29:41;3.95;;;2.90;;
14994;SDS011;7593;49.006;8.372;2022-07-17T03:32:07;3.88;;;3.25;;
14994;SDS011;7593;49.006;8.372;2022-07-17T03:34:35;3.33;;;2.80;;
14994;SDS011;7593;49.006;8.372;2022-07-17T03:37:02;4.13;;;3.33;;
14994;SDS011;7593;49.006;8.372;2022-07-17T03:39:30;4.80;;;2.88;;
14994;SDS011;7593;49.006;8.372;2022-07-17T03:41:58;10.30;;;3.47;;
14994;SDS011;7593;49.006;8.372;2022-07-17T03:44:25;3.15;;;2.80;;
14994;SDS011;7593;49.006;8.372;2022-07-17T03:46:52;3.83;;;2.92;;
14994;SDS011;7593;49.006;8.372;2022-07-17T03:49:19;4.35;;;3.08;;
14994;SDS011;7593;49.006;8.372;2022-07-17T03:51:46;3.70;;;2.90;;
14994;SDS011;7593;49.006;8.372;2022-07-17T03:54:13;4.63;;;3.17;;
14994;SDS011;7593;49.006;8.372;2022-07-17T03:56:41;8.15;;;3.25;;
14994;SDS011;7593;49.006;8.372;2022-07-17T03:59:08;4.53;;;3.20;;
14994;SDS011;7593;49.006;8.372;2022-07-17T04:01:35;3.53;;;3.13;;
14994;SDS011;7593;49.006;8.372;2022-07-17T04:04:02;5.05;;;3.40;;
14994;SDS011;7593;49.006;8.372;2022-07-17T04:06:29;4.22;;;3.00;;
14994;SDS011;7593;49.006;8.372;2022-07-17T04:08:55;4.47;;;2.88;;
14994;SDS011;7593;49.006;8.372;2022-07-17T04:11:22;3.40;;;3.03;;
14994;SDS011;7593;49.006;8.372;2022-07-17T04:13:50;3.30;;;3.00;;
14994;SDS011;7593;49.006;8.372;2022-07-17T04:16:17;3.75;;;2.90;;
14994;SDS011;7593;49.006;8.372;2022-07-17T04:18:44;3.20;;;2.80;;
14994;SDS011;7593;49.006;8.372;2022-07-17T04:21:11;4.18;;;2.95;;
14994;SDS011;7593;49.006;8.372;2022-07-17T04:23:38;3.20;;;2.90;;
14994;SDS011;7593;49.006;8.372;2022-07-17T04:26:05;3.17;;;2.88;;
14994;SDS011;7593;49.006;8.372;2022-07-17T04:28:33;4.32;;;3.22;;
14994;SDS011;7593;49.006;8.372;2022-07-17T04:31:01;3.95;;;2.70;;
14994;SDS011;7593;49.006;8.372;2022-07-17T04:33:28;5.30;;;2.90;;
14994;SDS011;7593;49.006;8.372;2022-07-17T04:35:55;5.25;;;2.65;;
14994;SDS011;7593;49.006;8.372;2022-07-17T04:38:21;2.83;;;2.63;;
14994;SDS011;7593;49.006;8.372;2022-07-17T04:40:48;3.10;;;2.80;;
14994;SDS011;7593;49.006;8.372;2022-07-17T04:43:15;3.80;;;2.83;;
14994;SDS011;7593;49.006;8.372;2022-07-17T04:45:42;3.20;;;2.70;;
14994;SDS011;7593;49.006;8.372;2022-07-17T04:48:10;3.60;;;2.85;;
14994;SDS011;7593;49.006;8.372;2022-07-17T04:50:37;3.35;;;2.58;;
14994;SDS011;7593;49.006;8.372;2022-07-17T04:53:04;3.25;;;2.70;;
14994;SDS011;7593;49.006;8.372;2022-07-17T04:55:31;4.18;;;2.55;;
14994;SDS011;7593;49.006;8.372;2022-07-17T04:57:58;4.15;;;2.72;;
14994;SDS011;7593;49.006;8.372;2022-07-17T05:00:24;2.85;;;2.40;;
14994;SDS011;7593;49.006;8.372;2022-07-17T05:02:52;4.05;;;2.70;;
14994;SDS011;7593;49.006;8.372;2022-07-17T05:05:20;4.30;;;2.45;;
14994;SDS011;7593;49.006;8.372;2022-07-17T05:07:47;3.30;;;2.40;;
14994;SDS011;7593;49.006;8.372;2022-07-17T05:10:14;2.80;;;2.10;;
14994;SDS011;7593;49.006;8.372;2022-07-17T05:12:41;3.15;;;2.30;;
14994;SDS011;7593;49.006;8.372;2022-07-17T05:15:08;3.42;;;2.60;;
14994;SDS011;7593;49.006;8.372;2022-07-17T05:17:35;4.72;;;2.45;;
14994;SDS011;7593;49.006;8.372;2022-07-17T05:20:02;5.07;;;2.40;;
14994;SDS011;7593;49.006;8.372;2022-07-17T05:22:31;2.83;;;2.50;;
14994;SDS011;7593;49.006;8.372;2022-07-17T05:24:58;3.53;;;2.33;;
14994;SDS011;7593;49.006;8.372;2022-07-17T05:27:25;3.08;;;2.50;;
14994;SDS011;7593;49.006;8.372;2022-07-17T05:29:53;4.30;;;2.47;;
14994;SDS011;7593;49.006;8.372;2022-07-17T05:32:20;4.25;;;2.53;;
14994;SDS011;7593;49.006;8.372;2022-07-17T05:34:47;4.22;;;2.42;;
14994;SDS011;7593;49.006;8.372;2022-07-17T05:37:14;3.10;;;2.15;;
14994;SDS011;7593;49.006;8.372;2022-07-17T05:39:42;6.95;;;2.30;;
14994;SDS011;7593;49.006;8.372;2022-07-17T05:42:08;4.65;;;2.38;;
14994;SDS011;7593;49.006;8.372;2022-07-17T05:44:36;3.67;;;2.03;;
14994;SDS011;7593;49.006;8.372;2022-07-17T05:47:02;5.60;;;2.10;;
14994;SDS011;7593;49.006;8.372;2022-07-17T05:49:29;4.00;;;2.28;;
14994;SDS011;7593;49.006;8.372;2022-07-17T05:51:56;2.53;;;2.08;;
14994;SDS011;7593;49.006;8.372;2022-07-17T05:54:23;3.38;;;2.20;;
14994;SDS011;7593;49.006;8.372;2022-07-17T05:56:51;3.28;;;2.08;;
14994;SDS011;7593;49.006;8.372;2022-07-17T05:59:18;3.40;;;1.90;;
14994;SDS011;7593;49.006;8.372;2022-07-17T06:01:45;2.45;;;1.85;;
14994;SDS011;7593;49.006;8.372;2022-07-17T06:04:12;3.13;;;2.10;;
14994;SDS011;7593;49.006;8.372;2022-07-17T06:06:39;4.30;;;2.05;;
14994;SDS011;7593;49.006;8.372;2022-07-17T06:09:05;2.63;;;1.90;;
14994;SDS011;7593;49.006;8.372;2022-07-17T06:11:32;4.45;;;2.20;;
14994;SDS011;7593;49.006;8.372;2022-07-17T06:14:00;3.22;;;1.90;;
14994;SDS011;7593;49.006;8.372;2022-07-17T06:16:27;4.18;;;2.10;;
14994;SDS011;7593;49.006;8.372;2022-07-17T06:18:54;5.57;;;2.30;;
14994;SDS011;7593;49.006;8.372;2022-07-17T06:21:21;2.17;;;1.77;;
14994;SDS011;7593;49.006;8.372;2022-07-17T06:23:47;2.20;;;1.80;;
14994;SDS011;7593;49.006;8.372;2022-07-17T06:26:14;4.15;;;1.98;;
14994;SDS011;7593;49.006;8.372;2022-07-17T06:28:41;3.45;;;1.98;;
14994;SDS011;7593;49.006;8.372;2022-07-17T06:31:09;3.55;;;1.90;;
14994;SDS011;7593;49.006;8.372;2022-07-17T06:33:36;3.00;;;1.80;;
14994;SDS011;7593;49.006;8.372;2022-07-17T06:36:03;4.95;;;3.40;;
14994;SDS011;7593;49.006;8.372;2022-07-17T06:38:31;3.35;;;1.50;;
14994;SDS011;7593;49.006;8.372;2022-07-17T06:40:59;4.05;;;2.10;;
14994;SDS011;7593;49.006;8.372;2022-07-17T06:43:26;3.13;;;1.90;;
14994;SDS011;7593;49.006;8.372;2022-07-17T06:45:52;3.75;;;1.90;;
14994;SDS011;7593;49.006;8.372;2022-07-17T06:48:21;3.58;;;1.77;;
14994;SDS011;7593;49.006;8.372;2022-07-17T06:50:48;4.72;;;2.00;;
14994;SDS011;7593;49.006;8.372;2022-07-17T06:53:15;2.40;;;1.63;;
14994;SDS011;7593;49.006;8.372;2022-07-17T06:55:42;6.97;;;1.77;;
14994;SDS011;7593;49.006;8.372;2022-07-17T06:58:09;2.30;;;1.60;;
14994;SDS011;7593;49.006;8.372;2022-07-17T07:00:36;4.57;;;1.75;;
14994;SDS011;7593;49.006;8.372;2022-07-17T07:03:03;4.40;;;1.70;;
14994;SDS011;7593;49.006;8.372;2022-07-17T07:05:31;1.73;;;1.45;;
14994;SDS011;7593;49.006;8.372;2022-07-17T07:07:58;2.72;;;1.75;;
14994;SDS011;7593;49.006;8.372;2022-07-17T07:10:25;4.05;;;1.63;;
14994;SDS011;7593;49.006;8.372;2022-07-17T07:12:53;5.47;;;1.70;;
14994;SDS011;7593;49.006;8.372;2022-07-17T07:15:20;2.75;;;1.52;;
14994;SDS011;7593;49.006;8.372;2022-07-17T07:17:46;4.47;;;1.50;;
14994;SDS011;7593;49.006;8.372;2022-07-17T07:20:13;3.42;;;1.65;;
14994;SDS011;7593;49.006;8.372;2022-07-17T07:22:42;7.13;;;1.60;;
14994;SDS011;7593;49.006;8.372;2022-07-17T07:25:08;1.90;;;1.70;;
14994;SDS011;7593;49.006;8.372;2022-07-17T07:27:35;3.20;;;1.27;;
14994;SDS011;7593;49.006;8.372;2022-07-17T07:30:02;2.42;;;1.30;;
14994;SDS011;7593;49.006;8.372;2022-07-17T07:32:30;3.13;;;1.52;;
14994;SDS011;7593;49.006;8.372;2022-07-17T07:34:57;3.65;;;1.70;;
14994;SDS011;7593;49.006;8.372;2022-07-17T07:37:24;3.20;;;1.88;;
14994;SDS011;7593;49.006;8.372;2022-07-17T07:39:52;3.67;;;1.67;;
14994;SDS011;7593;49.006;8.372;2022-07-17T07:42:19;1.95;;;1.50;;
14994;SDS011;7593;49.006;8.372;2022-07-17T07:44:46;3.47;;;1.60;;
14994;SDS011;7593;49.006;8.372;2022-07-17T07:47:12;2.10;;;1.50;;
14994;SDS011;7593;49.006;8.372;2022-07-17T07:49:39;1.90;;;1.50;;
14994;SDS011;7593;49.006;8.372;2022-07-17T07:52:06;2.38;;;1.40;;
14994;SDS011;7593;49.006;8.372;2022-07-17T07:54:33;3.00;;;1.40;;
14994;SDS011;7593;49.006;8.372;2022-07-17T07:57:04;4.80;;;2.05;;
14994;SDS011;7593;49.006;8.372;2022-07-17T07:59:30;3.53;;;1.60;;
14994;SDS011;7593;49.006;8.372;2022-07-17T08:02:01;4.55;;;1.50;;
14994;SDS011;7593;49.006;8.372;2022-07-17T08:04:28;5.05;;;1.60;;
14994;SDS011;7593;49.006;8.372;2022-07-17T08:06:57;2.17;;;1.48;;
14994;SDS011;7593;49.006;8.372;2022-07-17T08:09:24;2.70;;;1.50;;
14994;SDS011;7593;49.006;8.372;2022-07-17T08:11:51;4.82;;;1.85;;
14994;SDS011;7593;49.006;8.372;2022-07-17T08:14:20;3.13;;;1.70;;
14994;SDS011;7593;49.006;8.372;2022-07-17T08:16:46;6.38;;;1.85;;
14994;SDS011;7593;49.006;8.372;2022-07-17T08:19:13;4.78;;;1.70;;
14994;SDS011;7593;49.006;8.372;2022-07-17T08:21:42;3.13;;;1.77;;
14994;SDS011;7593;49.006;8.372;2022-07-17T08:24:09;1.98;;;1.58;;
14994;SDS011;7593;49.006;8.372;2022-07-17T08:26:36;2.17;;;1.60;;
14994;SDS011;7593;49.006;8.372;2022-07-17T08:29:03;3.58;;;1.85;;
14994;SDS011;7593;49.006;8.372;2022-07-17T08:31:33;6.53;;;1.88;;
14994;SDS011;7593;49.006;8.372;2022-07-17T08:34:00;4.82;;;1.65;;
14994;SDS011;7593;49.006;8.372;2022-07-17T08:36:27;3.38;;;1.70;;
14994;SDS011;7593;49.006;8.372;2022-07-17T08:38:56;3.38;;;1.70;;
14994;SDS011;7593;49.006;8.372;2022-07-17T08:41:23;3.35;;;1.50;;
14994;SDS011;7593;49.006;8.372;2022-07-17T08:43:50;2.75;;;1.70;;
14994;SDS011;7593;49.006;8.372;2022-07-17T08:46:19;2.22;;;1.70;;
14994;SDS011;7593;49.006;8.372;2022-07-17T08:48:52;3.15;;;1.50;;
14994;SDS011;7593;49.006;8.372;2022-07-17T08:51:22;2.15;;;1.38;;
14994;SDS011;7593;49.006;8.372;2022-07-17T08:53:50;1.77;;;1.40;;
14994;SDS011;7593;49.006;8.372;2022-07-17T08:56:18;2.60;;;1.40;;
14994;SDS011;7593;49.006;8.372;2022-07-17T08:58:45;3.05;;;1.35;;
14994;SDS011;7593;49.006;8.372;2022-07-17T09:01:11;2.38;;;1.48;;
14994;SDS011;7593;49.006;8.372;2022-07-17T09:03:39;14.35;;;3.55;;
14994;SDS011;7593;49.006;8.372;2022-07-17T09:06:16;3.72;;;1.67;;
14994;SDS011;7593;49.006;8.372;2022-07-17T09:08:44;2.05;;;1.35;;
14994;SDS011;7593;49.006;8.372;2022-07-17T09:11:10;4.25;;;1.60;;
14994;SDS011;7593;49.006;8.372;2022-07-17T09:13:37;2.67;;;1.40;;
14994;SDS011;7593;49.006;8.372;2022-07-17T09:16:11;4.60;;;1.45;;
14994;SDS011;7593;49.006;8.372;2022-07-17T09:18:42;3.33;;;1.30;;
14994;SDS011;7593;49.006;8.372;2022-07-17T09:21:15;4.00;;;1.35;;
14994;SDS011;7593;49.006;8.372;2022-07-17T09:23:43;4.03;;;1.33;;
14994;SDS011;7593;49.006;8.372;2022-07-17T09:26:10;2.78;;;1.50;;
14994;SDS011;7593;49.006;8.372;2022-07-17T09:28:44;2.15;;;1.50;;
14994;SDS011;7593;49.006;8.372;2022-07-17T09:31:11;3.88;;;1.60;;
14994;SDS011;7593;49.006;8.372;2022-07-17T09:33:40;2.95;;;1.23;;
14994;SDS011;7593;49.006;8.372;2022-07-17T09:36:07;2.05;;;1.10;;
14994;SDS011;7593;49.006;8.372;2022-07-17T09:38:40;2.53;;;1.27;;
14994;SDS011;7593;49.006;8.372;2022-07-17T09:41:10;1.38;;;1.10;;
14994;SDS011;7593;49.006;8.372;2022-07-17T09:43:41;3.78;;;1.35;;
14994;SDS011;7593;49.006;8.372;2022-07-17T09:46:11;1.20;;;1.05;;
14994;SDS011;7593;49.006;8.372;2022-07-17T09:48:44;1.73;;;1.15;;
14994;SDS011;7593;49.006;8.372;2022-07-17T09:51:17;2.67;;;1.30;;
14994;SDS011;7593;49.006;8.372;2022-07-17T09:53:48;1.30;;;1.00;;
14994;SDS011;7593;49.006;8.372;2022-07-17T09:56:16;3.13;;;1.35;;
14994;SDS011;7593;49.006;8.372;2022-07-17T09:58:47;5.88;;;1.40;;
14994;SDS011;7593;49.006;8.372;2022-07-17T10:01:15;2.75;;;1.80;;
14994;SDS011;7593;49.006;8.372;2022-07-17T10:03:43;2.67;;;1.20;;
14994;SDS011;7593;49.006;8.372;2022-07-17T10:06:10;2.22;;;1.30;;
14994;SDS011;7593;49.006;8.372;2022-07-17T10:08:37;3.92;;;1.25;;
14994;SDS011;7593;49.006;8.372;2022-07-17T10:11:06;3.28;;;1.30;;
14994;SDS011;7593;49.006;8.372;2022-07-17T10:13:35;4.53;;;1.30;;
14994;SDS011;7593;49.006;8.372;2022-07-17T10:16:04;1.70;;;1.17;;
14994;SDS011;7593;49.006;8.372;2022-07-17T10:18:36;1.75;;;1.10;;
14994;SDS011;7593;49.006;8.372;2022-07-17T10:21:06;2.35;;;1.30;;
14994;SDS011;7593;49.006;8.372;2022-07-17T10:23:47;1.70;;;1.17;;
14994;SDS011;7593;49.006;8.372;2022-07-17T10:26:32;3.45;;;1.40;;
14994;SDS011;7593;49.006;8.372;2022-07-17T10:29:00;6.53;;;2.20;;
14994;SDS011;7593;49.006;8.372;2022-07-17T10:31:27;1.67;;;1.17;;
14994;SDS011;7593;49.006;8.372;2022-07-17T10:33:56;1.42;;;1.20;;
14994;SDS011;7593;49.006;8.372;2022-07-17T10:36:37;1.23;;;1.00;;
14994;SDS011;7593;49.006;8.372;2022-07-17T10:39:12;3.30;;;1.10;;
14994;SDS011;7593;49.006;8.372;2022-07-17T10:41:42;1.30;;;1.00;;
14994;SDS011;7593;49.006;8.372;2022-07-17T10:44:09;2.70;;;1.17;;
14994;SDS011;7593;49.006;8.372;2022-07-17T10:46:36;3.55;;;1.13;;
14994;SDS011;7593;49.006;8.372;2022-07-17T10:49:06;2.72;;;1.10;;
14994;SDS011;7593;49.006;8.372;2022-07-17T10:51:33;3.58;;;1.13;;
14994;SDS011;7593;49.006;8.372;2022-07-17T10:54:01;1.30;;;1.10;;
14994;SDS011;7593;49.006;8.372;2022-07-17T10:56:28;1.30;;;1.15;;
14994;SDS011;7593;49.006;8.372;2022-07-17T10:59:02;3.55;;;1.20;;
14994;SDS011;7593;49.006;8.372;2022-07-17T11:01:29;1.85;;;1.10;;
14994;SDS011;7593;49.006;8.372;2022-07-17T11:03:57;2.60;;;1.13;;
14994;SDS011;7593;49.006;8.372;2022-07-17T11:06:25;2.95;;;1.00;;
14994;SDS011;7593;49.006;8.372;2022-07-17T11:08:56;1.63;;;1.00;;
14994;SDS011;7593;49.006;8.372;2022-07-17T11:11:34;2.17;;;0.90;;
14994;SDS011;7593;49.006;8.372;2022-07-17T11:14:10;3.25;;;1.15;;
14994;SDS011;7593;49.006;8.372;2022-07-17T11:16:43;15.00;;;6.22;;
14994;SDS011;7593;49.006;8.372;2022-07-17T11:19:12;1.67;;;1.10;;
14994;SDS011;7593;49.006;8.372;2022-07-17T11:21:49;2.55;;;1.25;;
14994;SDS011;7593;49.006;8.372;2022-07-17T11:24:17;2.05;;;1.00;;
14994;SDS011;7593;49.006;8.372;2022-07-17T11:26:44;2.55;;;1.00;;
14994;SDS011;7593;49.006;8.372;2022-07-17T11:29:12;2.85;;;1.20;;
14994;SDS011;7593;49.006;8.372;2022-07-17T11:31:40;2.90;;;1.10;;
14994;SDS011;7593;49.006;8.372;2022-07-17T11:34:08;1.05;;;0.90;;
14994;SDS011;7593;49.006;8.372;2022-07-17T11:36:37;1.27;;;1.10;;
14994;SDS011;7593;49.006;8.372;2022-07-17T11:39:05;2.67;;;1.13;;
14994;SDS011;7593;49.006;8.372;2022-07-17T11:41:37;1.98;;;1.10;;
14994;SDS011;7593;49.006;8.372;2022-07-17T11:44:08;1.60;;;1.17;;
14994;SDS011;7593;49.006;8.372;2022-07-17T11:46:38;2.15;;;1.00;;
14994;SDS011;7593;49.006;8.372;2022-07-17T11:49:06;2.17;;;0.88;;
14994;SDS011;7593;49.006;8.372;2022-07-17T11:51:35;1.67;;;0.90;;
14994;SDS011;7593;49.006;8.372;2022-07-17T11:54:03;1.95;;;1.10;;
14994;SDS011;7593;49.006;8.372;2022-07-17T11:56:31;2.80;;;1.23;;
14994;SDS011;7593;49.006;8.372;2022-07-17T11:58:59;1.25;;;1.15;;
14994;SDS011;7593;49.006;8.372;2022-07-17T12:01:27;2.40;;;1.13;;
14994;SDS011;7593;49.006;8.372;2022-07-17T12:03:57;2.75;;;1.10;;
14994;SDS011;7593;49.006;8.372;2022-07-17T12:06:25;1.10;;;1.00;;
14994;SDS011;7593;49.006;8.372;2022-07-17T12:08:52;1.13;;;0.90;;
14994;SDS011;7593;49.006;8.372;2022-07-17T12:11:20;1.95;;;1.35;;
14994;SDS011;7593;49.006;8.372;2022-07-17T12:13:47;4.93;;;2.10;;
14994;SDS011;7593;49.006;8.372;2022-07-17T12:16:23;2.00;;;1.02;;
14994;SDS011;7593;49.006;8.372;2022-07-17T12:18:55;1.30;;;1.20;;
14994;SDS011;7593;49.006;8.372;2022-07-17T12:21:30;2.17;;;1.10;;
14994;SDS011;7593;49.006;8.372;2022-07-17T12:23:59;1.30;;;1.00;;
14994;SDS011;7593;49.006;8.372;2022-07-17T12:26:27;0.85;;;0.80;;
14994;SDS011;7593;49.006;8.372;2022-07-17T12:28:55;3.25;;;1.13;;
14994;SDS011;7593;49.006;8.372;2022-07-17T12:31:22;5.70;;;1.30;;
14994;SDS011;7593;49.006;8.372;2022-07-17T12:33:50;4.28;;;1.35;;
14994;SDS011;7593;49.006;8.372;2022-07-17T12:36:19;1.05;;;0.95;;
14994;SDS011;7593;49.006;8.372;2022-07-17T12:38:47;4.90;;;1.10;;
14994;SDS011;7593;49.006;8.372;2022-07-17T12:41:14;1.55;;;1.00;;
14994;SDS011;7593;49.006;8.372;2022-07-17T12:43:41;2.22;;;0.95;;
14994;SDS011;7593;49.006;8.372;2022-07-17T12:46:08;1.15;;;0.95;;
14994;SDS011;7593;49.006;8.372;2022-07-17T12:48:35;1.77;;;1.23;;
14994;SDS011;7593;49.006;8.372;2022-07-17T12:51:04;2.17;;;1.20;;
14994;SDS011;7593;49.006;8.372;2022-07-17T12:53:32;1.95;;;1.00;;
14994;SDS011;7593;49.006;8.372;2022-07-17T12:56:00;2.90;;;1.00;;
14994;SDS011;7593;49.006;8.372;2022-07-17T12:58:27;2.90;;;1.63;;
14994;SDS011;7593;49.006;8.372;2022-07-17T13:00:54;1.40;;;1.00;;
14994;SDS011;7593;49.006;8.372;2022-07-17T13:03:21;1.25;;;1.10;;
14994;SDS011;7593;49.006;8.372;2022-07-17T13:05:48;1.58;;;1.25;;
14994;SDS011;7593;49.006;8.372;2022-07-17T13:08:15;3.25;;;1.10;;
14994;SDS011;7593;49.006;8.372;2022-07-17T13:10:43;2.00;;;1.08;;
14994;SDS011;7593;49.006;8.372;2022-07-17T13:13:10;1.58;;;1.05;;
14994;SDS011;7593;49.006;8.372;2022-07-17T13:15:37;1.10;;;1.00;;
14994;SDS011;7593;49.006;8.372;2022-07-17T13:18:04;2.13;;;1.10;;
14994;SDS011;7593;49.006;8.372;2022-07-17T13:20:31;1.30;;;0.98;;
14994;SDS011;7593;49.006;8.372;2022-07-17T13:22:58;2.45;;;1.10;;
14994;SDS011;7593;49.006;8.372;2022-07-17T13:25:25;1.00;;;0.90;;
14994;SDS011;7593;49.006;8.372;2022-07-17T13:27:53;1.73;;;1.20;;
14994;SDS011;7593;49.006;8.372;2022-07-17T13:30:19;1.77;;;1.08;;
14994;SDS011;7593;49.006;8.372;2022-07-17T13:32:46;1.83;;;1.13;;
14994;SDS011;7593;49.006;8.372;2022-07-17T13:35:13;5.82;;;1.40;;
14994;SDS011;7593;49.006;8.372;2022-07-17T13:37:42;1.92;;;1.27;;
14994;SDS011;7593;49.006;8.372;2022-07-17T13:40:10;1.33;;;1.05;;
14994;SDS011;7593;49.006;8.372;2022-07-17T13:42:37;1.40;;;1.10;;
14994;SDS011;7593;49.006;8.372;2022-07-17T13:45:06;4.75;;;1.20;;
14994;SDS011;7593;49.006;8.372;2022-07-17T13:47:34;1.05;;;0.93;;
14994;SDS011;7593;49.006;8.372;2022-07-17T13:50:01;2.38;;;1.20;;
14994;SDS011;7593;49.006;8.372;2022-07-17T13:52:28;2.33;;;1.20;;
14994;SDS011;7593;49.006;8.372;2022-07-17T13:54:55;2.05;;;1.05;;
14994;SDS011;7593;49.006;8.372;2022-07-17T13:57:22;1.85;;;1.05;;
14994;SDS011;7593;49.006;8.372;2022-07-17T13:59:50;2.38;;;1.33;;
14994;SDS011;7593;49.006;8.372;2022-07-17T14:02:18;2.85;;;1.27;;
14994;SDS011;7593;49.006;8.372;2022-07-17T14:04:45;1.75;;;1.10;;
14994;SDS011;7593;49.006;8.372;2022-07-17T14:07:11;3.08;;;1.30;;
14994;SDS011;7593;49.006;8.372;2022-07-17T14:09:39;3.83;;;1.00;;
14994;SDS011;7593;49.006;8.372;2022-07-17T14:12:06;4.45;;;1.25;;
14994;SDS011;7593;49.006;8.372;2022-07-17T14:14:33;1.90;;;1.10;;
14994;SDS011;7593;49.006;8.372;2022-07-17T14:17:00;2.60;;;1.15;;
14994;SDS011;7593;49.006;8.372;2022-07-17T14:19:28;2.50;;;1.23;;
14994;SDS011;7593;49.006;8.372;2022-07-17T14:21:55;3.20;;;1.30;;
14994;SDS011;7593;49.006;8.372;2022-07-17T14:24:21;2.17;;;1.10;;
14994;SDS011;7593;49.006;8.372;2022-07-17T14:26:48;1.67;;;1.15;;
14994;SDS011;7593;49.006;8.372;2022-07-17T14:29:15;3.47;;;1.50;;
14994;SDS011;7593;49.006;8.372;2022-07-17T14:31:42;1.33;;;1.20;;
14994;SDS011;7593;49.006;8.372;2022-07-17T14:34:09;2.78;;;1.20;;
14994;SDS011;7593;49.006;8.372;2022-07-17T14:36:37;4.50;;;1.20;;
14994;SDS011;7593;49.006;8.372;2022-07-17T14:39:04;1.20;;;1.10;;
14994;SDS011;7593;49.006;8.372;2022-07-17T14:41:31;1.20;;;1.10;;
14994;SDS011;7593;49.006;8.372;2022-07-17T14:43:58;2.95;;;1.20;;
14994;SDS011;7593;49.006;8.372;2022-07-17T14:46:25;2.28;;;1.10;;
14994;SDS011;7593;49.006;8.372;2022-07-17T14:48:52;1.20;;;1.10;;
14994;SDS011;7593;49.006;8.372;2022-07-17T14:51:19;1.33;;;1.17;;
14994;SDS011;7593;49.006;8.372;2022-07-17T14:53:47;1.73;;;1.10;;
14994;SDS011;7593;49.006;8.372;2022-07-17T14:56:14;3.05;;;1.25;;
14994;SDS011;7593;49.006;8.372;2022-07-17T14:58:41;2.60;;;1.40;;
14994;SDS011;7593;49.006;8.372;2022-07-17T15:01:08;1.45;;;1.15;;
14994;SDS011;7593;49.006;8.372;2022-07-17T15:03:35;3.50;;;1.42;;